sensor_id;sensor_type;location;lat;lon;timestamp;temperature;humidity
44607;DHT22;30315;46.072;14.474;2024-03-25T03:46:33;6.20;66.60
44607;DHT22;30315;46.072;14.474;2024-03-25T03:49:00;6.10;66.60
44607;DHT22;30315;46.072;14.474;2024-03-25T03:51:26;6.10;66.50
44607;DHT22;30315;46.072;14.474;2024-03-25T03:53:54;6.10;66.40
44607;DHT22;30315;46.072;14.474;2024-03-25T03:56:22;6.10;66.70
44607;DHT22;30315;46.072;14.474;2024-03-25T03:58:48;6.10;66.90
44607;DHT22;30315;46.072;14.474;2024-03-25T04:01:18;6.00;66.90
44607;DHT22;30315;46.072;14.474;2024-03-25T04:03:46;6.10;67.20
44607;DHT22;30315;46.072;14.474;2024-03-25T04:06:13;6.00;67.10
44607;DHT22;30315;46.072;14.474;2024-03-25T04:08:41;6.10;66.90
44607;DHT22;30315;46.072;14.474;2024-03-25T04:11:10;6.10;66.80
44607;DHT22;30315;46.072;14.474;2024-03-25T04:13:36;6.00;66.60
44607;DHT22;30315;46.072;14.474;2024-03-25T04:16:05;6.00;66.70
44607;DHT22;30315;46.072;14.474;2024-03-25T04:18:35;6.00;66.80
44607;DHT22;30315;46.072;14.474;2024-03-25T04:21:02;6.00;66.90
44607;DHT22;30315;46.072;14.474;2024-03-25T04:23:28;6.00;67.10
44607;DHT22;30315;46.072;14.474;2024-03-25T04:26:00;6.00;67.10
44607;DHT22;30315;46.072;14.474;2024-03-25T04:28:26;6.00;67.20
44607;DHT22;30315;46.072;14.474;2024-03-25T04:30:53;6.00;67.10
44607;DHT22;30315;46.072;14.474;2024-03-25T04:33:21;6.00;66.80
44607;DHT22;30315;46.072;14.474;2024-03-25T04:35:49;5.90;66.30
44607;DHT22;30315;46.072;14.474;2024-03-25T04:38:16;5.90;66.40
44607;DHT22;30315;46.072;14.474;2024-03-25T04:40:43;5.90;66.70
44607;DHT22;30315;46.072;14.474;2024-03-25T04:43:12;5.80;66.80
44607;DHT22;30315;46.072;14.474;2024-03-25T04:45:38;5.80;66.90
44607;DHT22;30315;46.072;14.474;2024-03-25T04:48:05;5.80;67.10
44607;DHT22;30315;46.072;14.474;2024-03-25T04:50:35;5.80;67.10
44607;DHT22;30315;46.072;14.474;2024-03-25T04:53:02;5.70;67.10
44607;DHT22;30315;46.072;14.474;2024-03-25T04:55:30;5.70;67.10
44607;DHT22;30315;46.072;14.474;2024-03-25T04:57:58;5.70;66.90
44607;DHT22;30315;46.072;14.474;2024-03-25T05:00:24;5.70;66.90
44607;DHT22;30315;46.072;14.474;2024-03-25T05:02:52;5.70;66.90
44607;DHT22;30315;46.072;14.474;2024-03-25T05:05:20;5.70;67.10
44607;DHT22;30315;46.072;14.474;2024-03-25T05:07:49;5.70;67.20
44607;DHT22;30315;46.072;14.474;2024-03-25T05:10:15;5.70;68.00
44607;DHT22;30315;46.072;14.474;2024-03-25T05:12:42;5.70;67.40
44607;DHT22;30315;46.072;14.474;2024-03-25T05:15:12;5.70;67.40
44607;DHT22;30315;46.072;14.474;2024-03-25T05:17:41;5.70;67.60
44607;DHT22;30315;46.072;14.474;2024-03-25T05:20:08;5.70;67.50
44607;DHT22;30315;46.072;14.474;2024-03-25T05:22:37;5.70;67.40
44607;DHT22;30315;46.072;14.474;2024-03-25T05:25:08;5.70;67.90
44607;DHT22;30315;46.072;14.474;2024-03-25T05:27:34;5.70;67.40
44607;DHT22;30315;46.072;14.474;2024-03-25T05:30:00;5.80;67.30
44607;DHT22;30315;46.072;14.474;2024-03-25T05:32:28;5.70;67.00
44607;DHT22;30315;46.072;14.474;2024-03-25T05:34:55;5.80;66.90
44607;DHT22;30315;46.072;14.474;2024-03-25T05:37:21;5.70;66.80
44607;DHT22;30315;46.072;14.474;2024-03-25T05:39:47;5.70;66.90
44607;DHT22;30315;46.072;14.474;2024-03-25T05:42:13;5.70;67.30
44607;DHT22;30315;46.072;14.474;2024-03-25T05:44:39;5.70;67.40
44607;DHT22;30315;46.072;14.474;2024-03-25T05:47:09;5.70;67.60
44607;DHT22;30315;46.072;14.474;2024-03-25T05:49:36;5.70;67.70
44607;DHT22;30315;46.072;14.474;2024-03-25T05:52:04;5.70;67.90
44607;DHT22;30315;46.072;14.474;2024-03-25T05:54:34;5.70;68.10
44607;DHT22;30315;46.072;14.474;2024-03-25T05:57:00;5.70;68.20
44607;DHT22;30315;46.072;14.474;2024-03-25T05:59:27;5.70;68.30
44607;DHT22;30315;46.072;14.474;2024-03-25T06:01:55;5.80;68.50
44607;DHT22;30315;46.072;14.474;2024-03-25T06:04:22;5.80;68.60
44607;DHT22;30315;46.072;14.474;2024-03-25T06:06:48;5.90;68.70
44607;DHT22;30315;46.072;14.474;2024-03-25T06:09:14;5.90;68.60
44607;DHT22;30315;46.072;14.474;2024-03-25T06:11:42;6.00;68.60
44607;DHT22;30315;46.072;14.474;2024-03-25T06:14:08;5.90;68.40
44607;DHT22;30315;46.072;14.474;2024-03-25T06:16:37;6.00;68.60
44607;DHT22;30315;46.072;14.474;2024-03-25T06:19:04;6.10;68.70
44607;DHT22;30315;46.072;14.474;2024-03-25T06:21:31;6.10;68.80
44607;DHT22;30315;46.072;14.474;2024-03-25T06:24:01;6.20;68.70
44607;DHT22;30315;46.072;14.474;2024-03-25T06:26:29;6.20;68.60
44607;DHT22;30315;46.072;14.474;2024-03-25T06:28:55;6.20;68.60
44607;DHT22;30315;46.072;14.474;2024-03-25T06:31:23;6.30;68.70
44607;DHT22;30315;46.072;14.474;2024-03-25T06:34:10;6.40;68.80
44607;DHT22;30315;46.072;14.474;2024-03-25T06:36:49;6.50;69.60
44607;DHT22;30315;46.072;14.474;2024-03-25T06:39:17;6.60;69.80
44607;DHT22;30315;46.072;14.474;2024-03-25T06:41:46;6.70;69.00
44607;DHT22;30315;46.072;14.474;2024-03-25T06:44:12;6.70;69.10
44607;DHT22;30315;46.072;14.474;2024-03-25T06:46:39;6.80;68.50
44607;DHT22;30315;46.072;14.474;2024-03-25T06:49:05;6.80;68.50
44607;DHT22;30315;46.072;14.474;2024-03-25T06:51:31;6.80;68.30
44607;DHT22;30315;46.072;14.474;2024-03-25T06:54:00;6.90;68.30
44607;DHT22;30315;46.072;14.474;2024-03-25T06:56:26;6.90;68.50
44607;DHT22;30315;46.072;14.474;2024-03-25T06:58:52;6.90;68.60
44607;DHT22;30315;46.072;14.474;2024-03-25T07:01:18;7.00;68.60
44607;DHT22;30315;46.072;14.474;2024-03-25T07:03:44;7.10;68.70
44607;DHT22;30315;46.072;14.474;2024-03-25T07:06:13;7.10;68.60
44607;DHT22;30315;46.072;14.474;2024-03-25T07:08:39;7.10;68.60
44607;DHT22;30315;46.072;14.474;2024-03-25T07:11:07;7.20;68.50
44607;DHT22;30315;46.072;14.474;2024-03-25T07:13:35;7.20;68.60
44607;DHT22;30315;46.072;14.474;2024-03-25T07:16:04;7.20;68.50
44607;DHT22;30315;46.072;14.474;2024-03-25T07:18:32;7.30;68.60
44607;DHT22;30315;46.072;14.474;2024-03-25T07:21:00;7.40;68.80
44607;DHT22;30315;46.072;14.474;2024-03-25T07:23:27;7.40;68.80
44607;DHT22;30315;46.072;14.474;2024-03-25T07:25:55;7.50;68.80
44607;DHT22;30315;46.072;14.474;2024-03-25T07:28:23;7.50;68.40
44607;DHT22;30315;46.072;14.474;2024-03-25T07:30:50;7.60;68.40
44607;DHT22;30315;46.072;14.474;2024-03-25T07:33:18;7.60;68.40
44607;DHT22;30315;46.072;14.474;2024-03-25T07:35:47;7.70;68.50
44607;DHT22;30315;46.072;14.474;2024-03-25T07:38:13;7.80;68.80
44607;DHT22;30315;46.072;14.474;2024-03-25T07:40:41;7.80;68.70
44607;DHT22;30315;46.072;14.474;2024-03-25T07:43:10;7.90;68.80
44607;DHT22;30315;46.072;14.474;2024-03-25T07:45:38;7.90;68.70
44607;DHT22;30315;46.072;14.474;2024-03-25T07:48:05;8.00;68.80
44607;DHT22;30315;46.072;14.474;2024-03-25T07:50:34;8.00;68.80
44607;DHT22;30315;46.072;14.474;2024-03-25T07:53:00;8.10;68.80
44607;DHT22;30315;46.072;14.474;2024-03-25T07:55:26;8.10;68.60
44607;DHT22;30315;46.072;14.474;2024-03-25T07:57:52;8.10;68.50
44607;DHT22;30315;46.072;14.474;2024-03-25T08:00:19;8.20;68.60
44607;DHT22;30315;46.072;14.474;2024-03-25T08:02:45;8.30;68.40
44607;DHT22;30315;46.072;14.474;2024-03-25T08:05:11;8.40;68.60
44607;DHT22;30315;46.072;14.474;2024-03-25T08:07:37;8.40;68.40
44607;DHT22;30315;46.072;14.474;2024-03-25T08:10:04;8.50;68.30
44607;DHT22;30315;46.072;14.474;2024-03-25T08:12:31;8.50;68.20
44607;DHT22;30315;46.072;14.474;2024-03-25T08:14:57;8.60;68.90
44607;DHT22;30315;46.072;14.474;2024-03-25T08:17:24;8.60;68.20
44607;DHT22;30315;46.072;14.474;2024-03-25T08:19:50;8.70;68.10
44607;DHT22;30315;46.072;14.474;2024-03-25T08:22:16;8.80;68.00
44607;DHT22;30315;46.072;14.474;2024-03-25T08:24:42;8.90;68.70
44607;DHT22;30315;46.072;14.474;2024-03-25T08:27:09;8.90;67.80
44607;DHT22;30315;46.072;14.474;2024-03-25T08:29:35;9.00;67.90
44607;DHT22;30315;46.072;14.474;2024-03-25T08:32:01;9.10;68.00
44607;DHT22;30315;46.072;14.474;2024-03-25T08:34:27;9.10;67.70
44607;DHT22;30315;46.072;14.474;2024-03-25T08:36:53;9.10;67.40
44607;DHT22;30315;46.072;14.474;2024-03-25T08:39:21;9.20;67.50
44607;DHT22;30315;46.072;14.474;2024-03-25T08:41:47;9.20;67.30
44607;DHT22;30315;46.072;14.474;2024-03-25T08:44:16;9.30;67.40
44607;DHT22;30315;46.072;14.474;2024-03-25T08:46:43;9.30;67.20
44607;DHT22;30315;46.072;14.474;2024-03-25T08:49:11;9.40;67.10
44607;DHT22;30315;46.072;14.474;2024-03-25T08:51:37;9.50;67.20
44607;DHT22;30315;46.072;14.474;2024-03-25T08:54:03;9.50;67.20
44607;DHT22;30315;46.072;14.474;2024-03-25T08:56:33;9.60;67.00
44607;DHT22;30315;46.072;14.474;2024-03-25T08:59:00;9.70;66.80
44607;DHT22;30315;46.072;14.474;2024-03-25T09:01:27;9.70;66.50
44607;DHT22;30315;46.072;14.474;2024-03-25T09:03:53;9.70;66.10
44607;DHT22;30315;46.072;14.474;2024-03-25T09:06:19;9.80;66.20
44607;DHT22;30315;46.072;14.474;2024-03-25T09:08:46;9.80;66.10
44607;DHT22;30315;46.072;14.474;2024-03-25T09:11:32;9.90;66.20
44607;DHT22;30315;46.072;14.474;2024-03-25T09:13:58;10.00;65.00
44607;DHT22;30315;46.072;14.474;2024-03-25T09:16:24;10.00;65.00
44607;DHT22;30315;46.072;14.474;2024-03-25T09:18:53;10.10;64.50
44607;DHT22;30315;46.072;14.474;2024-03-25T09:21:19;10.20;64.10
44607;DHT22;30315;46.072;14.474;2024-03-25T09:23:45;10.30;63.80
44607;DHT22;30315;46.072;14.474;2024-03-25T09:26:16;10.30;63.30
44607;DHT22;30315;46.072;14.474;2024-03-25T09:28:42;10.40;63.60
44607;DHT22;30315;46.072;14.474;2024-03-25T09:31:10;10.50;63.10
44607;DHT22;30315;46.072;14.474;2024-03-25T09:33:37;10.60;62.90
44607;DHT22;30315;46.072;14.474;2024-03-25T09:36:03;10.60;62.60
44607;DHT22;30315;46.072;14.474;2024-03-25T09:38:31;10.80;62.60
44607;DHT22;30315;46.072;14.474;2024-03-25T09:41:00;10.80;62.20
44607;DHT22;30315;46.072;14.474;2024-03-25T09:43:44;10.90;61.90
44607;DHT22;30315;46.072;14.474;2024-03-25T09:46:18;11.00;61.20
44607;DHT22;30315;46.072;14.474;2024-03-25T09:48:44;11.00;60.40
44607;DHT22;30315;46.072;14.474;2024-03-25T09:51:10;11.10;60.40
44607;DHT22;30315;46.072;14.474;2024-03-25T09:53:40;11.20;60.10
44607;DHT22;30315;46.072;14.474;2024-03-25T09:56:07;11.20;59.90
44607;DHT22;30315;46.072;14.474;2024-03-25T09:58:36;11.30;59.90
44607;DHT22;30315;46.072;14.474;2024-03-25T10:01:08;11.40;59.50
44607;DHT22;30315;46.072;14.474;2024-03-25T10:03:36;11.50;58.30
44607;DHT22;30315;46.072;14.474;2024-03-25T10:06:03;11.50;57.60
44607;DHT22;30315;46.072;14.474;2024-03-25T10:08:30;11.60;57.50
44607;DHT22;30315;46.072;14.474;2024-03-25T10:10:58;11.70;57.50
44607;DHT22;30315;46.072;14.474;2024-03-25T10:13:27;11.90;57.10
44607;DHT22;30315;46.072;14.474;2024-03-25T10:15:55;11.90;56.60
44607;DHT22;30315;46.072;14.474;2024-03-25T10:18:23;12.00;56.00
44607;DHT22;30315;46.072;14.474;2024-03-25T10:20:54;12.00;55.90
44607;DHT22;30315;46.072;14.474;2024-03-25T10:23:25;12.10;55.50
44607;DHT22;30315;46.072;14.474;2024-03-25T10:25:52;12.20;55.20
44607;DHT22;30315;46.072;14.474;2024-03-25T10:28:21;12.30;54.40
44607;DHT22;30315;46.072;14.474;2024-03-25T10:30:49;12.30;54.20
44607;DHT22;30315;46.072;14.474;2024-03-25T10:33:15;12.40;54.10
44607;DHT22;30315;46.072;14.474;2024-03-25T10:35:43;12.50;53.50
44607;DHT22;30315;46.072;14.474;2024-03-25T10:38:15;12.60;53.50
44607;DHT22;30315;46.072;14.474;2024-03-25T10:40:44;12.70;53.50
44607;DHT22;30315;46.072;14.474;2024-03-25T10:43:11;12.80;53.30
44607;DHT22;30315;46.072;14.474;2024-03-25T10:45:42;13.00;53.10
44607;DHT22;30315;46.072;14.474;2024-03-25T10:48:15;13.10;52.50
44607;DHT22;30315;46.072;14.474;2024-03-25T10:50:46;13.10;52.00
44607;DHT22;30315;46.072;14.474;2024-03-25T10:53:14;13.20;51.20
44607;DHT22;30315;46.072;14.474;2024-03-25T10:55:45;13.40;51.00
44607;DHT22;30315;46.072;14.474;2024-03-25T10:58:16;13.40;49.70
44607;DHT22;30315;46.072;14.474;2024-03-25T11:00:51;13.60;49.60
44607;DHT22;30315;46.072;14.474;2024-03-25T11:03:23;13.60;47.70
44607;DHT22;30315;46.072;14.474;2024-03-25T11:06:02;13.70;47.40
44607;DHT22;30315;46.072;14.474;2024-03-25T11:08:34;13.80;46.20
44607;DHT22;30315;46.072;14.474;2024-03-25T11:11:00;13.90;45.20
44607;DHT22;30315;46.072;14.474;2024-03-25T11:13:27;14.00;43.90
44607;DHT22;30315;46.072;14.474;2024-03-25T11:15:58;13.80;48.70
44607;DHT22;30315;46.072;14.474;2024-03-25T11:18:25;14.40;47.40
44607;DHT22;30315;46.072;14.474;2024-03-25T11:21:05;14.40;45.30
44607;DHT22;30315;46.072;14.474;2024-03-25T11:23:40;14.50;44.70
44607;DHT22;30315;46.072;14.474;2024-03-25T11:26:21;14.60;43.60
44607;DHT22;30315;46.072;14.474;2024-03-25T11:28:57;14.70;43.60
44607;DHT22;30315;46.072;14.474;2024-03-25T11:31:26;14.80;43.50
44607;DHT22;30315;46.072;14.474;2024-03-25T11:33:53;14.90;43.50
44607;DHT22;30315;46.072;14.474;2024-03-25T11:36:22;15.10;44.20
44607;DHT22;30315;46.072;14.474;2024-03-25T11:39:00;15.30;44.60
44607;DHT22;30315;46.072;14.474;2024-03-25T11:41:41;15.40;43.40
44607;DHT22;30315;46.072;14.474;2024-03-25T11:44:12;15.50;42.20
44607;DHT22;30315;46.072;14.474;2024-03-25T11:46:41;15.60;41.20
44607;DHT22;30315;46.072;14.474;2024-03-25T11:49:12;15.70;40.90
44607;DHT22;30315;46.072;14.474;2024-03-25T11:51:40;15.80;40.30
44607;DHT22;30315;46.072;14.474;2024-03-25T11:54:10;15.90;40.30
44607;DHT22;30315;46.072;14.474;2024-03-25T11:56:38;16.00;40.30
44607;DHT22;30315;46.072;14.474;2024-03-25T11:59:05;16.10;40.20
44607;DHT22;30315;46.072;14.474;2024-03-25T12:01:37;16.30;39.50
44607;DHT22;30315;46.072;14.474;2024-03-25T12:04:18;16.40;39.10
44607;DHT22;30315;46.072;14.474;2024-03-25T12:06:46;16.50;37.20
44607;DHT22;30315;46.072;14.474;2024-03-25T12:09:13;16.50;37.90
44607;DHT22;30315;46.072;14.474;2024-03-25T12:11:58;16.60;37.40
44607;DHT22;30315;46.072;14.474;2024-03-25T12:14:25;16.70;36.70
44607;DHT22;30315;46.072;14.474;2024-03-25T12:16:55;16.80;37.00
44607;DHT22;30315;46.072;14.474;2024-03-25T12:19:27;16.90;37.60
44607;DHT22;30315;46.072;14.474;2024-03-25T12:22:00;17.10;37.40
44607;DHT22;30315;46.072;14.474;2024-03-25T12:24:31;17.10;35.30
44607;DHT22;30315;46.072;14.474;2024-03-25T12:27:04;17.00;35.60
44607;DHT22;30315;46.072;14.474;2024-03-25T12:29:35;17.30;35.70
44607;DHT22;30315;46.072;14.474;2024-03-25T12:32:02;17.40;35.30
44607;DHT22;30315;46.072;14.474;2024-03-25T12:34:29;17.50;34.60
44607;DHT22;30315;46.072;14.474;2024-03-25T12:37:04;17.60;34.40
44607;DHT22;30315;46.072;14.474;2024-03-25T12:39:36;17.80;34.60
44607;DHT22;30315;46.072;14.474;2024-03-25T12:42:13;17.90;34.10
44607;DHT22;30315;46.072;14.474;2024-03-25T12:44:41;18.00;33.50
44607;DHT22;30315;46.072;14.474;2024-03-25T12:47:07;18.20;32.90
44607;DHT22;30315;46.072;14.474;2024-03-25T12:49:39;18.20;33.30
44607;DHT22;30315;46.072;14.474;2024-03-25T12:52:05;18.40;33.30
44607;DHT22;30315;46.072;14.474;2024-03-25T12:54:33;18.50;32.50
44607;DHT22;30315;46.072;14.474;2024-03-25T12:57:02;18.60;32.80
44607;DHT22;30315;46.072;14.474;2024-03-25T12:59:30;18.70;33.20
44607;DHT22;30315;46.072;14.474;2024-03-25T13:01:57;18.80;32.80
44607;DHT22;30315;46.072;14.474;2024-03-25T13:04:23;18.90;32.90
44607;DHT22;30315;46.072;14.474;2024-03-25T13:06:50;19.10;32.70
44607;DHT22;30315;46.072;14.474;2024-03-25T13:09:16;19.20;31.70
44607;DHT22;30315;46.072;14.474;2024-03-25T13:11:45;19.30;32.10
44607;DHT22;30315;46.072;14.474;2024-03-25T13:14:12;19.40;30.30
44607;DHT22;30315;46.072;14.474;2024-03-25T13:16:39;19.40;31.10
44607;DHT22;30315;46.072;14.474;2024-03-25T13:19:06;19.50;32.00
44607;DHT22;30315;46.072;14.474;2024-03-25T13:21:35;19.60;31.60
44607;DHT22;30315;46.072;14.474;2024-03-25T13:24:01;19.70;30.70
44607;DHT22;30315;46.072;14.474;2024-03-25T13:26:29;19.70;30.10
44607;DHT22;30315;46.072;14.474;2024-03-25T13:28:55;19.80;30.40
44607;DHT22;30315;46.072;14.474;2024-03-25T13:31:22;19.70;29.70
44607;DHT22;30315;46.072;14.474;2024-03-25T13:33:48;19.50;29.40
44607;DHT22;30315;46.072;14.474;2024-03-25T13:36:16;19.40;29.70
44607;DHT22;30315;46.072;14.474;2024-03-25T13:38:42;19.40;29.90
44607;DHT22;30315;46.072;14.474;2024-03-25T13:41:11;19.30;29.30
44607;DHT22;30315;46.072;14.474;2024-03-25T13:43:42;19.20;29.80
44607;DHT22;30315;46.072;14.474;2024-03-25T13:46:09;19.10;29.80
44607;DHT22;30315;46.072;14.474;2024-03-25T13:48:40;19.10;29.70
44607;DHT22;30315;46.072;14.474;2024-03-25T13:51:06;19.20;29.70
44607;DHT22;30315;46.072;14.474;2024-03-25T13:53:33;19.40;30.00
44607;DHT22;30315;46.072;14.474;2024-03-25T13:56:03;19.60;29.30
44607;DHT22;30315;46.072;14.474;2024-03-25T13:58:32;19.60;28.50
44607;DHT22;30315;46.072;14.474;2024-03-25T14:00:58;19.70;27.60
44607;DHT22;30315;46.072;14.474;2024-03-25T14:03:31;19.70;27.10
44607;DHT22;30315;46.072;14.474;2024-03-25T14:05:57;19.70;27.10
44607;DHT22;30315;46.072;14.474;2024-03-25T14:08:23;19.70;27.10
44607;DHT22;30315;46.072;14.474;2024-03-25T14:11:03;19.80;26.30
44607;DHT22;30315;46.072;14.474;2024-03-25T14:13:32;19.80;27.40
44607;DHT22;30315;46.072;14.474;2024-03-25T14:15:58;19.90;28.10
44607;DHT22;30315;46.072;14.474;2024-03-25T14:18:26;19.90;28.40
44607;DHT22;30315;46.072;14.474;2024-03-25T14:20:52;19.90;27.40
44607;DHT22;30315;46.072;14.474;2024-03-25T14:23:20;20.00;28.50
44607;DHT22;30315;46.072;14.474;2024-03-25T14:25:49;20.10;27.90
44607;DHT22;30315;46.072;14.474;2024-03-25T14:28:15;20.10;26.10
44607;DHT22;30315;46.072;14.474;2024-03-25T14:30:43;20.10;26.50
44607;DHT22;30315;46.072;14.474;2024-03-25T14:33:14;20.20;27.20
44607;DHT22;30315;46.072;14.474;2024-03-25T14:35:41;20.30;28.00
44607;DHT22;30315;46.072;14.474;2024-03-25T14:38:18;20.30;26.10
44607;DHT22;30315;46.072;14.474;2024-03-25T14:40:46;20.30;26.60
44607;DHT22;30315;46.072;14.474;2024-03-25T14:43:13;20.20;27.10
44607;DHT22;30315;46.072;14.474;2024-03-25T14:45:39;20.30;28.20
44607;DHT22;30315;46.072;14.474;2024-03-25T14:48:05;20.30;28.00
44607;DHT22;30315;46.072;14.474;2024-03-25T14:50:32;20.40;27.30
44607;DHT22;30315;46.072;14.474;2024-03-25T14:52:58;20.50;28.30
44607;DHT22;30315;46.072;14.474;2024-03-25T14:55:24;20.60;27.60
44607;DHT22;30315;46.072;14.474;2024-03-25T14:57:50;20.60;26.60
44607;DHT22;30315;46.072;14.474;2024-03-25T15:00:18;20.60;27.20
44607;DHT22;30315;46.072;14.474;2024-03-25T15:02:48;20.70;27.20
44607;DHT22;30315;46.072;14.474;2024-03-25T15:05:16;20.60;26.00
44607;DHT22;30315;46.072;14.474;2024-03-25T15:07:42;20.60;26.30
44607;DHT22;30315;46.072;14.474;2024-03-25T15:10:08;20.60;26.00
44607;DHT22;30315;46.072;14.474;2024-03-25T15:12:35;20.60;25.90
44607;DHT22;30315;46.072;14.474;2024-03-25T15:15:07;20.60;26.60
44607;DHT22;30315;46.072;14.474;2024-03-25T15:17:36;20.70;26.50
44607;DHT22;30315;46.072;14.474;2024-03-25T15:20:03;20.80;25.90
44607;DHT22;30315;46.072;14.474;2024-03-25T15:22:31;20.80;26.40
44607;DHT22;30315;46.072;14.474;2024-03-25T15:24:58;20.90;26.30
44607;DHT22;30315;46.072;14.474;2024-03-25T15:27:27;21.00;26.40
44607;DHT22;30315;46.072;14.474;2024-03-25T15:29:53;21.20;26.60
44607;DHT22;30315;46.072;14.474;2024-03-25T15:32:19;21.30;26.20
44607;DHT22;30315;46.072;14.474;2024-03-25T15:34:46;21.40;25.40
44607;DHT22;30315;46.072;14.474;2024-03-25T15:37:14;21.40;24.40
44607;DHT22;30315;46.072;14.474;2024-03-25T15:39:41;21.30;24.20
44607;DHT22;30315;46.072;14.474;2024-03-25T15:42:10;21.30;23.70
44607;DHT22;30315;46.072;14.474;2024-03-25T15:44:37;21.10;22.90
44607;DHT22;30315;46.072;14.474;2024-03-25T15:47:03;21.00;23.80
44607;DHT22;30315;46.072;14.474;2024-03-25T15:49:34;20.90;24.50
44607;DHT22;30315;46.072;14.474;2024-03-25T15:52:00;20.80;23.80
44607;DHT22;30315;46.072;14.474;2024-03-25T15:54:26;20.80;24.00
44607;DHT22;30315;46.072;14.474;2024-03-25T15:56:55;20.70;24.10
44607;DHT22;30315;46.072;14.474;2024-03-25T15:59:21;20.80;24.30
44607;DHT22;30315;46.072;14.474;2024-03-25T16:01:47;20.70;22.90
44607;DHT22;30315;46.072;14.474;2024-03-25T16:04:18;20.60;23.70
44607;DHT22;30315;46.072;14.474;2024-03-25T16:06:44;20.60;24.60
44607;DHT22;30315;46.072;14.474;2024-03-25T16:09:10;20.70;26.00
44607;DHT22;30315;46.072;14.474;2024-03-25T16:11:41;20.70;24.20
44607;DHT22;30315;46.072;14.474;2024-03-25T16:14:07;20.70;24.20
44607;DHT22;30315;46.072;14.474;2024-03-25T16:16:43;20.60;24.60
44607;DHT22;30315;46.072;14.474;2024-03-25T16:19:11;20.60;24.30
44607;DHT22;30315;46.072;14.474;2024-03-25T16:21:38;20.60;24.40
44607;DHT22;30315;46.072;14.474;2024-03-25T16:24:05;20.50;24.50
44607;DHT22;30315;46.072;14.474;2024-03-25T16:26:35;20.40;24.40
44607;DHT22;30315;46.072;14.474;2024-03-25T16:29:01;20.40;24.70
44607;DHT22;30315;46.072;14.474;2024-03-25T16:31:29;20.40;25.60
44607;DHT22;30315;46.072;14.474;2024-03-25T16:33:55;20.50;25.70
44607;DHT22;30315;46.072;14.474;2024-03-25T16:36:21;20.50;26.00
44607;DHT22;30315;46.072;14.474;2024-03-25T16:38:50;20.60;26.20
44607;DHT22;30315;46.072;14.474;2024-03-25T16:41:18;20.60;26.70
44607;DHT22;30315;46.072;14.474;2024-03-25T16:43:47;20.60;26.10
44607;DHT22;30315;46.072;14.474;2024-03-25T16:46:18;20.50;26.00
44607;DHT22;30315;46.072;14.474;2024-03-25T16:48:47;20.50;25.90
44607;DHT22;30315;46.072;14.474;2024-03-25T16:51:13;20.40;25.80
44607;DHT22;30315;46.072;14.474;2024-03-25T16:53:39;20.20;25.70
44607;DHT22;30315;46.072;14.474;2024-03-25T16:56:05;20.00;25.40
44607;DHT22;30315;46.072;14.474;2024-03-25T16:58:34;19.80;26.10
44607;DHT22;30315;46.072;14.474;2024-03-25T17:01:02;19.70;26.20
44607;DHT22;30315;46.072;14.474;2024-03-25T17:03:32;19.30;26.30
44607;DHT22;30315;46.072;14.474;2024-03-25T17:05:58;19.00;26.80
44607;DHT22;30315;46.072;14.474;2024-03-25T17:08:25;18.80;27.20
44607;DHT22;30315;46.072;14.474;2024-03-25T17:10:54;18.60;27.00
44607;DHT22;30315;46.072;14.474;2024-03-25T17:13:20;18.30;27.60
44607;DHT22;30315;46.072;14.474;2024-03-25T17:15:48;18.10;27.90
44607;DHT22;30315;46.072;14.474;2024-03-25T17:18:16;17.90;27.90
44607;DHT22;30315;46.072;14.474;2024-03-25T17:20:47;17.70;27.60
44607;DHT22;30315;46.072;14.474;2024-03-25T17:23:17;17.50;28.60
44607;DHT22;30315;46.072;14.474;2024-03-25T17:25:45;17.30;28.80
44607;DHT22;30315;46.072;14.474;2024-03-25T17:28:14;17.20;29.20
44607;DHT22;30315;46.072;14.474;2024-03-25T17:30:40;17.10;29.40
44607;DHT22;30315;46.072;14.474;2024-03-25T17:33:13;17.00;29.50
44607;DHT22;30315;46.072;14.474;2024-03-25T17:35:39;16.80;29.90
44607;DHT22;30315;46.072;14.474;2024-03-25T17:38:05;16.70;30.10
44607;DHT22;30315;46.072;14.474;2024-03-25T17:40:33;16.60;30.00
44607;DHT22;30315;46.072;14.474;2024-03-25T17:43:00;16.50;30.20
44607;DHT22;30315;46.072;14.474;2024-03-25T17:45:26;16.40;30.40
44607;DHT22;30315;46.072;14.474;2024-03-25T17:47:53;16.30;30.60
44607;DHT22;30315;46.072;14.474;2024-03-25T17:50:19;16.20;30.90
44607;DHT22;30315;46.072;14.474;2024-03-25T17:52:46;16.10;30.90
44607;DHT22;30315;46.072;14.474;2024-03-25T17:55:13;16.00;31.20
44607;DHT22;30315;46.072;14.474;2024-03-25T17:57:40;15.90;31.60
44607;DHT22;30315;46.072;14.474;2024-03-25T18:00:07;15.80;31.90
44607;DHT22;30315;46.072;14.474;2024-03-25T18:02:34;15.80;31.90
44607;DHT22;30315;46.072;14.474;2024-03-25T18:05:01;15.70;32.10
44607;DHT22;30315;46.072;14.474;2024-03-25T18:07:28;15.60;31.60
44607;DHT22;30315;46.072;14.474;2024-03-25T18:09:55;15.50;32.70
44607;DHT22;30315;46.072;14.474;2024-03-25T18:12:22;15.40;33.00
44607;DHT22;30315;46.072;14.474;2024-03-25T18:14:49;15.30;33.30
44607;DHT22;30315;46.072;14.474;2024-03-25T18:17:16;15.20;34.00
44607;DHT22;30315;46.072;14.474;2024-03-25T18:19:45;15.20;34.10
44607;DHT22;30315;46.072;14.474;2024-03-25T18:22:12;15.10;35.10
44607;DHT22;30315;46.072;14.474;2024-03-25T18:24:38;15.00;35.10
44607;DHT22;30315;46.072;14.474;2024-03-25T18:27:04;15.00;35.90
44607;DHT22;30315;46.072;14.474;2024-03-25T18:29:30;15.10;35.90
44607;DHT22;30315;46.072;14.474;2024-03-25T18:31:57;14.80;36.00
44607;DHT22;30315;46.072;14.474;2024-03-25T18:34:23;14.80;35.90
44607;DHT22;30315;46.072;14.474;2024-03-25T18:36:49;14.70;36.20
44607;DHT22;30315;46.072;14.474;2024-03-25T18:39:16;14.70;36.70
44607;DHT22;30315;46.072;14.474;2024-03-25T18:41:44;14.50;36.90
44607;DHT22;30315;46.072;14.474;2024-03-25T18:44:10;14.50;37.00
44607;DHT22;30315;46.072;14.474;2024-03-25T18:46:39;14.40;36.20
44607;DHT22;30315;46.072;14.474;2024-03-25T18:49:07;14.40;37.50
44607;DHT22;30315;46.072;14.474;2024-03-25T18:51:34;14.30;38.00
44607;DHT22;30315;46.072;14.474;2024-03-25T18:54:00;14.20;38.50
44607;DHT22;30315;46.072;14.474;2024-03-25T18:56:28;14.20;39.10
44607;DHT22;30315;46.072;14.474;2024-03-25T18:58:57;14.10;39.00
44607;DHT22;30315;46.072;14.474;2024-03-25T19:01:25;14.00;39.80
44607;DHT22;30315;46.072;14.474;2024-03-25T19:03:51;14.00;40.10
44607;DHT22;30315;46.072;14.474;2024-03-25T19:06:18;14.00;40.10
44607;DHT22;30315;46.072;14.474;2024-03-25T19:08:44;13.90;40.90
44607;DHT22;30315;46.072;14.474;2024-03-25T19:11:10;13.80;41.40